Ely, NV

4:21 PM PDT on July 30, 2014 (GMT -0700)
Ely (KELY) Elev 6260 ft | 39.30 °N, 114.85 °W | Change Station
Active Advisory: Flash Flood Watch

Current weather conditions updated 28 minutes ago

Clear
Clear
84 °F
Feels Like 84 °F
N
17
Wind Variable Wind from North
Gusts 23 mph

Tomorrow is forecast to be Much Cooler than today. Scattered thunderstorms.

Today
High -- | Low -- °F
--% Chance of Precip.
Yesterday
High -- | Low -- °F
Precip. -- in
5:37 AM 7:53 PM
Waxing Crescent, 14% visible
Pressure 29.99 in
Visibility 10.0 miles
Clouds Clear
Dew Point 41 °F
Humidity 22%
Rainfall 0.00 in
Snow Depth Not available.
UV 7 out of 12
Pollen 6.20 out of 12
Air Quality Not available.
Flu Activity Not available.
METAR KELY 302253Z AUTO 36015G20KT 10SM CLR 29/05 A3026 RMK AO2 SLP155 T02890050

More Conditions Fewer Conditions

Pressure 29.99 in
Visibility 10.0 miles
Clouds Clear
Dew Point 41 °F
Humidity 22%
Rainfall 0.00 in
Snow Depth Not available.
UV 7 out of 12
Pollen 6.20 out of 12
Air Quality Not available.
Flu Activity Not available.
METAR KELY 302253Z AUTO 36015G20KT 10SM CLR 29/05 A3026 RMK AO2 SLP155 T02890050

More Conditions Fewer Conditions

10-Day Weather Forecast

Almanac

Astronomy

Jul. 30, 2014 Rise Set
Actual Time 5:37 AM PDT 7:53 PM PDT
Civil Twilight 5:07 AM PDT 8:23 PM PDT
Nautical Twilight 4:30 AM PDT 9:00 PM PDT
Astronomical Twilight 3:49 AM PDT 9:40 PM PDT
Moon 9:11 AM PDT 9:39 PM PDT
Length of Visible Light 15h 15m
Length of Day
14h 15m
Tomorrow will be 1m 53s shorter.
Waxing Crescent, 14% of the Moon is Illuminated
Today
Waxing Crescent
Aug 3
First Quarter
Aug 10
Full
Aug 17
Last Quarter
Aug 25
New

Today's Extremes

State Highs State Lows

Community

WunderPhotos

Upload Photos

1,739,248 photos uploaded!

Nearby

Snow Depth

Station Depth Elevation
Diamond Peak 0 in 8000 ft
Green Mountain 0 in 8000 ft
Taylor Canyon 0 in 6200 ft
Jacks Peak 3 in 8420 ft
Bear Creek 0 in 7800 ft

Earthquake Activity

City Distance Mag. Time & Date
No recent earthquake activity has been reported nearby.
Minimum magnitude displayed is 2.5.

Coastal Water Temperatures

Place Temperature
No Stations Reporting

Nearby Weather Stations

Station Location Temp. Heat Index Dew Point Humidity Wind Precip. Elev Updated Type
Cross Timbers, Ely, NV 82.4 °F 80 °F 44 °F 26% NNE  at  6.7 mph 0.00 in / hr 6234 ft 4:20 PM PDT Normal
MesoWest North Spring Valley , McGill, NV 82 °F 80 °F 43 °F 26% NNE  at  11 mph 0.00 in / hr 5642 ft 3:10 PM PDT MADIS
MesoWest Murray Summit , Ruth, NV 75 °F 77 °F 38 °F 26% North  at  7 mph 0.00 in / hr 7290 ft 3:26 PM PDT MADIS

Show More Stations Show Fewer Stations